Overview Statistics Trail Chart Weather Telemetry Raw packets
 

This is the latest recevied weather packets stored in our database for station/object KV4OP. If no packets are shown the sender has not sent any weather packets the latest 10 day(s).

<< 94 95 96 97 98 99 100 >>
Time Temp. Humidity Pressure Rain* Wind** Luminosity Snow
1787954458 25.56° C 75% 1017.2 hPa 0 mm - - -
1787954149 25.56° C 75% 1017.3 hPa 0 mm - - -
1787953849 25.56° C 75% 1017.4 hPa 0 mm - - -
1787953549 25.56° C 75% 1017.6 hPa 0 mm - - -
1787953258 25.56° C 76% 1017.7 hPa 0 mm - - -
1787952950 25.56° C 76% 1017.7 hPa 0 mm - - -
1787952650 25.56° C 76% 1017.5 hPa 0 mm - - -
1787952350 25.56° C 76% 1017.4 hPa 0 mm - - -
1787952058 25.56° C 76% 1017.3 hPa 0 mm - - -
1787951750 25.56° C 76% 1017.3 hPa 0 mm - - -
1787951450 25.56° C 76% 1017.5 hPa 0 mm - - -
1787951150 25.56° C 75% 1017.6 hPa 0 mm - - -
1787950858 25.56° C 75% 1017.9 hPa 0 mm - - -
1787950550 25.56° C 74% 1017.9 hPa 0 mm - - -
1787950250 26.11° C 73% 1017.7 hPa 0 mm - - -
1787949950 26.67° C 71% 1017.9 hPa 0 mm - - -
1787949660 27.22° C 71% 1017.7 hPa 0 mm - - -
1787949350 27.22° C 70% 1017.5 hPa 0 mm - - -
1787949050 27.78° C 68% 1017 hPa 0 mm - - -
1787948751 28.89° C 66% 1016.7 hPa 0 mm - - -
1787948458 29.44° C 65% 1016.6 hPa 0 mm - - -
1787948150 30° C 66% 1016.8 hPa 0 mm - - -
1787947850 31.11° C 65% 1016.5 hPa 0 mm - - -
1787947550 32.78° C 60% 1016.6 hPa 0 mm - - -
1787947259 32.78° C 57% 1016.7 hPa 0 mm - - -

* Rain latest hour (hover to see other rain measurements)
** Current wind speed in m/s (hover to see current wind gust speed)